CheckWX is a tool to help pilots better visualize weather data.  It is not intended as a substitute for an official pre-flight weather briefing.

12:00:52 UTC

KHDN METAR
Yampa Valley Airport
Hayden, Colorado, USA
Current

5 mins ago

KHDN 251156Z AUTO 00000KT 10SM FEW022 BKN055 M02/M03 A3035 RMK AO2 UPE1057 SLP294 60000 70001 T10221028 10000 21022 53006 FZRANO
Observed
Mar-25 @ 11:56 UTC
Visibility
10 SM
Flight Rules
VFR
Cloud Levels
  • Few at 2,200' AGL
  • Broken at 5,500' AGL
Temperature
-2°C / 28°F
Dewpoint
-3°C / 27°F
Humidity
93%
Altimeter
30.35" Hg
Pressure
1029.4 hPa
Previous

1 hour ago

KHDN 251056Z AUTO 00000KT 10SM UP FEW026 BKN032 OVC060 M01/M02 A3032 RMK AO2 UPE27B43SNB27E43 SLP279 P0000 T10111022 FZRANO
Observed
Mar-25 @ 10:56 UTC
Visibility
10 SM
Flight Rules
VFR
Conditions
Unknown precipitation
Cloud Levels
  • Few at 2,600' AGL
  • Broken at 3,200' AGL
  • Overcast at 6,000' AGL
Temperature
-1°C / 30°F
Dewpoint
-2°C / 28°F
Humidity
93%
Altimeter
30.32" Hg
Pressure
1027.9 hPa
Current Rain
0.01"
Previous

1 hour ago

KHDN 251047Z AUTO 00000KT 10SM UP FEW016 OVC031 M01/M02 A3032 RMK AO2 UPE27B43SNB27E43 P0000 FZRANO
Observed
Mar-25 @ 10:47 UTC
Visibility
10 SM
Flight Rules
VFR
Conditions
Unknown precipitation
Cloud Levels
  • Few at 1,600' AGL
  • Overcast at 3,100' AGL
Temperature
-1°C / 30°F
Dewpoint
-2°C / 28°F
Humidity
93%
Altimeter
30.32" Hg
Pressure
1026.72 hPa
Current Rain
0.01"